Joanesia, Brazil
Current Conditions -  °F | °C
As of 5:00 PM on Thursday 23 Oct 2014 (Local Time) from SBCF Reporting Station
Few Clouds Few Clouds  
Wind Chill: 81°   Ceiling: Unl
Heat Index: 81°   Visibility: 6mi
Dew Point: 55°   Wind: 13mph
Humidity: 42%   Direction: 90°E
Pressure: 30.06"   Gusts: NA
Location:  19.17°S, 42.68°W
Report Text: SBCF 231900Z 09011KT 9999 FEW040 27/13 Q1018
Loading
Personal Weather Stations






























Interactive Weather Map
Tropical Storm Tracking
New forecast layout! Learn more

10-Day Weather Forecast

Advertisements
Track Severe Weather on mobile